createdAt,value
2023-05-09T00:00:46.399Z,19.80
2023-05-09T00:03:14.511Z,19.73
2023-05-09T00:05:41.773Z,19.52
2023-05-09T00:10:34.701Z,19.02
2023-05-09T00:13:01.278Z,19.63
2023-05-09T00:15:28.844Z,20.50
2023-05-09T00:17:55.320Z,19.80
2023-05-09T00:20:21.878Z,20.30
2023-05-09T00:22:48.287Z,19.75
2023-05-09T00:25:14.997Z,19.25
2023-05-09T00:27:41.652Z,19.65
2023-05-09T00:30:08.592Z,20.23
2023-05-09T00:32:35.553Z,19.35
2023-05-09T00:35:02.041Z,19.27
2023-05-09T00:37:30.555Z,20.48
2023-05-09T00:39:57.016Z,19.83
2023-05-09T00:42:23.506Z,19.35
2023-05-09T00:44:50.043Z,20.25
2023-05-09T00:47:16.533Z,19.13
2023-05-09T00:49:43.159Z,19.05
2023-05-09T00:52:09.663Z,18.63
2023-05-09T00:54:36.133Z,19.20
2023-05-09T00:57:02.775Z,18.63
2023-05-09T00:59:29.379Z,20.25
2023-05-09T01:01:56.149Z,19.05
2023-05-09T01:04:22.831Z,19.85
2023-05-09T01:07:11.486Z,20.08
2023-05-09T01:09:55.414Z,18.90
2023-05-09T01:12:49.761Z,20.63
2023-05-09T01:15:16.582Z,19.23
2023-05-09T01:18:06.314Z,20.02
2023-05-09T01:20:45.621Z,19.23
2023-05-09T01:23:20.253Z,19.77
2023-05-09T01:25:55.584Z,19.30
2023-05-09T01:28:34.503Z,20.63
2023-05-09T01:31:01.351Z,20.15
2023-05-09T01:33:32.065Z,21.00
2023-05-09T01:36:04.225Z,20.58
2023-05-09T01:38:32.623Z,19.67
2023-05-09T01:41:00.670Z,20.63
2023-05-09T01:43:29.870Z,21.45
2023-05-09T01:45:58.388Z,19.60
2023-05-09T01:48:26.551Z,21.02
2023-05-09T01:50:55.307Z,20.67
2023-05-09T01:53:30.215Z,19.63
2023-05-09T01:55:59.440Z,19.10
2023-05-09T01:58:27.948Z,19.40
2023-05-09T02:00:54.469Z,18.77
2023-05-09T02:03:22.338Z,19.35
2023-05-09T02:05:50.071Z,18.85
2023-05-09T02:08:21.118Z,19.25
2023-05-09T02:10:49.180Z,18.98
2023-05-09T02:13:16.920Z,18.92
2023-05-09T02:15:44.226Z,19.25
2023-05-09T02:20:37.559Z,19.33
2023-05-09T02:23:04.895Z,20.13
2023-05-09T02:25:33.169Z,19.98
2023-05-09T02:28:00.751Z,19.20
2023-05-09T02:30:33.360Z,19.45
2023-05-09T02:33:06.049Z,19.92
2023-05-09T02:35:33.229Z,20.33
2023-05-09T02:38:00.712Z,18.65
2023-05-09T02:40:29.318Z,20.23
2023-05-09T02:42:56.424Z,20.60
2023-05-09T02:45:23.042Z,20.33
2023-05-09T02:47:49.567Z,20.35
2023-05-09T02:50:16.065Z,19.85
2023-05-09T02:52:42.573Z,20.30
2023-05-09T02:55:09.723Z,19.85
2023-05-09T02:57:36.913Z,20.83
2023-05-09T03:02:30.918Z,21.77
2023-05-09T03:04:57.537Z,20.17
2023-05-09T03:07:24.010Z,20.73
2023-05-09T03:09:50.788Z,21.00
2023-05-09T03:12:17.165Z,20.60
2023-05-09T03:14:43.692Z,21.90
2023-05-09T03:17:10.147Z,21.80
2023-05-09T03:19:36.616Z,22.15
2023-05-09T03:22:03.071Z,21.92
2023-05-09T03:24:29.782Z,21.88
2023-05-09T03:26:56.196Z,22.13
2023-05-09T03:29:22.806Z,21.98
2023-05-09T03:31:49.316Z,21.35
2023-05-09T03:34:15.802Z,21.85
2023-05-09T03:36:43.672Z,22.27
2023-05-09T03:39:10.991Z,21.70
2023-05-09T03:41:37.542Z,21.85
2023-05-09T03:44:04.858Z,21.50
2023-05-09T03:46:31.236Z,22.25
2023-05-09T03:48:57.706Z,21.40
2023-05-09T03:51:24.213Z,22.75
2023-05-09T03:53:50.603Z,23.48
2023-05-09T03:56:17.211Z,23.73
2023-05-09T03:58:43.816Z,23.95
2023-05-09T04:01:10.857Z,24.88
2023-05-09T04:03:38.007Z,25.15
2023-05-09T04:06:05.868Z,26.95
2023-05-09T04:08:33.324Z,25.95
2023-05-09T04:10:59.822Z,28.73
2023-05-09T04:13:26.718Z,27.55
2023-05-09T04:18:21.547Z,27.95
2023-05-09T04:20:48.320Z,29.08
2023-05-09T04:23:14.845Z,30.92
2023-05-09T04:25:43.813Z,30.77
2023-05-09T04:28:10.232Z,31.75
2023-05-09T04:30:37.623Z,32.83
2023-05-09T04:33:04.476Z,32.20
2023-05-09T04:35:33.534Z,33.65
2023-05-09T04:38:00.007Z,33.38
2023-05-09T04:40:27.937Z,34.78
2023-05-09T04:43:06.755Z,33.05
2023-05-09T04:45:35.348Z,33.50
2023-05-09T04:48:01.759Z,33.90
2023-05-09T04:50:28.260Z,36.35
2023-05-09T04:52:54.855Z,37.72
2023-05-09T04:55:21.289Z,35.08
2023-05-09T04:57:47.801Z,37.33
2023-05-09T05:00:16.756Z,35.95
2023-05-09T05:02:43.357Z,34.63
2023-05-09T05:05:12.370Z,36.80
2023-05-09T05:07:39.331Z,36.97
2023-05-09T05:10:06.586Z,38.15
2023-05-09T05:12:35.308Z,38.45
2023-05-09T05:15:01.801Z,41.60
2023-05-09T05:17:29.729Z,40.95
2023-05-09T05:19:56.236Z,41.67
2023-05-09T05:22:23.084Z,41.33
2023-05-09T05:24:53.675Z,41.38
2023-05-09T05:27:20.241Z,40.75
2023-05-09T05:29:46.592Z,39.05
2023-05-09T05:32:14.129Z,40.00
2023-05-09T05:34:40.695Z,40.17
2023-05-09T05:37:09.231Z,39.42
2023-05-09T05:39:35.678Z,39.72
2023-05-09T05:42:02.111Z,38.00
2023-05-09T05:44:28.561Z,37.67
2023-05-09T05:46:55.255Z,39.55
2023-05-09T05:49:25.073Z,37.90
2023-05-09T05:51:52.645Z,36.65
2023-05-09T05:54:20.183Z,39.25
2023-05-09T05:56:48.663Z,37.97
2023-05-09T05:59:18.201Z,36.10
2023-05-09T06:01:44.672Z,36.17
2023-05-09T06:04:11.075Z,37.15
2023-05-09T06:06:38.508Z,36.05
2023-05-09T06:11:36.789Z,35.95
2023-05-09T06:14:04.171Z,35.90
2023-05-09T06:16:30.807Z,37.17
2023-05-09T06:18:58.218Z,34.92
2023-05-09T06:21:27.716Z,34.25
2023-05-09T06:26:23.450Z,32.45
2023-05-09T06:28:49.947Z,33.53
2023-05-09T06:31:16.492Z,31.30
2023-05-09T06:33:43.091Z,33.72
2023-05-09T06:36:09.787Z,33.83
2023-05-09T06:38:36.316Z,33.20
2023-05-09T06:41:06.840Z,30.58
2023-05-09T06:43:33.222Z,29.90
2023-05-09T06:45:59.755Z,28.13
2023-05-09T06:48:26.837Z,28.38
2023-05-09T06:50:53.562Z,26.88
2023-05-09T06:53:19.986Z,29.98
2023-05-09T06:55:48.605Z,27.02
2023-05-09T06:58:15.324Z,27.35
2023-05-09T07:00:41.730Z,26.55
2023-05-09T07:03:15.975Z,27.25
2023-05-09T07:05:43.526Z,27.08
2023-05-09T07:10:36.638Z,26.13
2023-05-09T07:13:03.114Z,26.30
2023-05-09T07:15:40.645Z,26.50
2023-05-09T07:18:08.519Z,27.00
2023-05-09T07:20:35.029Z,26.80
2023-05-09T07:23:06.867Z,25.38
2023-05-09T07:25:33.328Z,26.05
2023-05-09T07:27:59.916Z,25.83
2023-05-09T07:30:28.549Z,27.25
2023-05-09T07:32:55.560Z,27.10
2023-05-09T07:35:22.247Z,27.25
2023-05-09T07:37:48.721Z,26.33
2023-05-09T07:40:16.582Z,26.75
2023-05-09T07:42:49.524Z,24.35
2023-05-09T07:45:18.709Z,26.23
2023-05-09T07:47:46.924Z,25.85
2023-05-09T07:50:13.375Z,25.33
2023-05-09T07:52:49.204Z,25.55
2023-05-09T07:55:15.843Z,26.08
2023-05-09T07:57:42.444Z,25.73
2023-05-09T08:00:10.590Z,25.67
2023-05-09T08:02:37.105Z,26.48
2023-05-09T08:05:03.691Z,23.40
2023-05-09T08:07:30.410Z,26.08
2023-05-09T08:09:56.840Z,26.17
2023-05-09T08:12:24.337Z,24.85
2023-05-09T08:14:50.814Z,25.02
2023-05-09T08:17:17.445Z,27.02
2023-05-09T08:19:43.791Z,26.67
2023-05-09T08:22:16.758Z,24.80
2023-05-09T08:24:43.341Z,27.17
2023-05-09T08:27:09.809Z,25.88
2023-05-09T08:29:36.234Z,26.52
2023-05-09T08:32:02.672Z,26.90
2023-05-09T08:34:31.216Z,28.33
2023-05-09T08:36:57.613Z,28.00
2023-05-09T08:39:24.290Z,28.20
2023-05-09T08:41:53.144Z,28.65
2023-05-09T08:44:21.621Z,27.73
2023-05-09T08:46:51.581Z,29.25
2023-05-09T08:49:20.836Z,28.88
2023-05-09T08:51:48.855Z,28.55
2023-05-09T08:54:15.958Z,27.63
2023-05-09T08:59:09.777Z,27.67
2023-05-09T09:01:36.763Z,27.92
2023-05-09T09:06:35.490Z,28.05
2023-05-09T09:09:07.118Z,28.88
2023-05-09T09:11:35.804Z,27.65
2023-05-09T09:14:10.102Z,27.77
2023-05-09T09:16:37.080Z,30.23
2023-05-09T09:21:32.903Z,30.30
2023-05-09T09:23:59.989Z,28.15
2023-05-09T09:28:57.945Z,27.58
2023-05-09T09:31:30.821Z,29.45
2023-05-09T09:34:02.369Z,29.65
2023-05-09T09:36:30.234Z,27.65
2023-05-09T09:39:00.433Z,27.13
2023-05-09T09:41:34.296Z,26.67
2023-05-09T09:44:15.815Z,26.65
2023-05-09T09:46:53.419Z,25.70
2023-05-09T09:51:56.976Z,25.20
2023-05-09T09:54:26.796Z,24.55
2023-05-09T09:56:54.685Z,24.13
2023-05-09T09:59:24.906Z,24.25
2023-05-09T10:02:02.881Z,22.40
2023-05-09T10:04:36.879Z,21.40
2023-05-09T10:07:12.879Z,19.58
2023-05-09T10:12:08.944Z,20.05
2023-05-09T10:14:43.719Z,20.88
2023-05-09T10:17:14.746Z,21.08
2023-05-09T10:19:45.874Z,19.38
2023-05-09T10:22:19.728Z,18.15
2023-05-09T10:25:01.809Z,15.98
2023-05-09T10:27:32.520Z,14.05
2023-05-09T10:30:13.244Z,11.93
2023-05-09T10:32:54.803Z,11.68
2023-05-09T10:35:27.862Z,11.05
2023-05-09T10:37:57.629Z,11.85
2023-05-09T10:40:24.438Z,11.13
2023-05-09T10:42:51.017Z,11.45
2023-05-09T10:45:17.555Z,11.75
2023-05-09T10:47:45.444Z,12.02
2023-05-09T10:50:15.780Z,11.35
2023-05-09T10:53:04.975Z,10.65
2023-05-09T10:56:02.969Z,10.88
2023-05-09T10:58:33.239Z,10.57
2023-05-09T11:01:01.351Z,9.60
2023-05-09T11:03:49.040Z,9.00
2023-05-09T11:06:40.257Z,8.60
2023-05-09T11:09:37.788Z,8.82
2023-05-09T11:12:07.192Z,9.05
2023-05-09T11:14:46.863Z,9.55
2023-05-09T11:17:14.563Z,9.35
2023-05-09T11:19:46.788Z,9.77
2023-05-09T11:22:17.079Z,9.98
2023-05-09T11:24:47.880Z,9.68
2023-05-09T11:27:15.820Z,10.25
2023-05-09T11:29:55.411Z,11.10
2023-05-09T11:32:30.028Z,10.40
2023-05-09T11:35:15.356Z,9.90
2023-05-09T11:38:00.161Z,10.52
2023-05-09T11:40:28.424Z,10.75
2023-05-09T11:42:58.584Z,12.43
2023-05-09T11:45:31.203Z,13.05
2023-05-09T11:47:58.549Z,13.43
2023-05-09T11:50:27.827Z,13.75
2023-05-09T11:52:54.585Z,13.02
2023-05-09T11:55:30.264Z,14.75
2023-05-09T11:58:00.163Z,12.63
2023-05-09T12:00:26.799Z,13.52
2023-05-09T12:02:54.013Z,13.05
2023-05-09T12:05:23.234Z,12.88
2023-05-09T12:07:50.237Z,13.27
2023-05-09T12:12:55.549Z,13.65
2023-05-09T12:15:22.475Z,14.07
2023-05-09T12:18:08.120Z,14.05
2023-05-09T12:20:46.124Z,14.30
2023-05-09T12:23:14.579Z,14.57
2023-05-09T12:25:55.362Z,14.00
2023-05-09T12:28:24.194Z,14.27
2023-05-09T12:30:52.300Z,14.10
2023-05-09T12:33:21.310Z,14.23
2023-05-09T12:35:49.398Z,13.95
2023-05-09T12:38:22.440Z,14.15
2023-05-09T12:41:06.744Z,14.10
2023-05-09T12:43:36.208Z,12.30
2023-05-09T12:46:04.073Z,12.55
2023-05-09T12:48:37.770Z,13.13
2023-05-09T12:51:07.976Z,13.48
2023-05-09T12:53:43.283Z,11.98
2023-05-09T12:56:25.413Z,12.63
2023-05-09T12:58:55.599Z,12.95
2023-05-09T13:01:31.042Z,14.07
2023-05-09T13:04:05.833Z,12.48
2023-05-09T13:06:51.740Z,13.13
2023-05-09T13:09:18.709Z,13.45
2023-05-09T13:14:14.948Z,13.57
2023-05-09T13:16:43.534Z,14.02
2023-05-09T13:19:11.037Z,13.70
2023-05-09T13:21:37.605Z,13.35
2023-05-09T13:24:04.889Z,13.07
2023-05-09T13:26:32.403Z,12.27
2023-05-09T13:29:04.071Z,12.73
2023-05-09T13:31:31.503Z,12.90
2023-05-09T13:33:58.092Z,11.20
2023-05-09T13:36:24.628Z,12.70
2023-05-09T13:38:52.224Z,12.77
2023-05-09T13:41:27.015Z,12.57
2023-05-09T13:43:53.454Z,12.95
2023-05-09T13:46:20.108Z,13.63
2023-05-09T13:48:47.720Z,13.18
2023-05-09T13:51:14.417Z,13.02
2023-05-09T13:53:41.001Z,11.85
2023-05-09T13:56:09.663Z,11.70
2023-05-09T13:58:36.405Z,11.18
2023-05-09T14:01:12.021Z,11.48
2023-05-09T14:03:38.778Z,10.98
2023-05-09T14:06:05.505Z,11.00
2023-05-09T14:08:33.544Z,11.75
2023-05-09T14:11:00.568Z,12.63
2023-05-09T14:13:27.098Z,11.43
2023-05-09T14:15:55.036Z,11.15
2023-05-09T14:18:21.615Z,10.73
2023-05-09T14:20:48.353Z,8.77
2023-05-09T14:23:14.788Z,9.30
2023-05-09T14:25:41.380Z,8.70
2023-05-09T14:28:09.687Z,7.38
2023-05-09T14:30:38.265Z,7.95
2023-05-09T14:33:04.817Z,7.32
2023-05-09T14:35:34.105Z,7.57
2023-05-09T14:38:01.544Z,8.15
2023-05-09T14:42:59.249Z,7.40
2023-05-09T14:47:57.624Z,7.22
2023-05-09T14:50:24.380Z,7.07
2023-05-09T14:52:52.141Z,6.53
2023-05-09T14:55:19.316Z,6.97
2023-05-09T15:00:21.172Z,5.03
2023-05-09T15:02:49.762Z,4.72
2023-05-09T15:05:16.721Z,5.38
2023-05-09T15:07:50.489Z,5.07
2023-05-09T15:10:17.178Z,4.57
2023-05-09T15:12:44.315Z,5.40
2023-05-09T15:15:14.002Z,5.22
2023-05-09T15:17:40.988Z,5.80
2023-05-09T15:20:07.771Z,5.45
2023-05-09T15:22:41.975Z,5.68
2023-05-09T15:25:11.854Z,5.43
2023-05-09T15:27:40.065Z,5.85
2023-05-09T15:30:08.909Z,5.40
2023-05-09T15:32:42.098Z,6.18
2023-05-09T15:35:09.044Z,6.13
2023-05-09T15:37:36.351Z,6.00
2023-05-09T15:40:03.035Z,6.20
2023-05-09T15:42:29.692Z,5.63
2023-05-09T15:44:56.587Z,5.78
2023-05-09T15:47:23.477Z,6.03
2023-05-09T15:49:51.093Z,4.50
2023-05-09T15:52:18.057Z,4.50
2023-05-09T15:54:46.220Z,3.63
2023-05-09T15:57:13.480Z,2.60
2023-05-09T16:02:07.899Z,1.92
2023-05-09T16:04:34.782Z,1.48
2023-05-09T16:07:02.474Z,2.13
2023-05-09T16:09:29.260Z,1.50
2023-05-09T16:11:56.376Z,1.50
2023-05-09T16:14:23.193Z,1.70
2023-05-09T16:16:51.615Z,1.83
2023-05-09T16:19:19.256Z,2.10
2023-05-09T16:21:46.700Z,1.90
2023-05-09T16:24:13.183Z,1.90
2023-05-09T16:26:43.977Z,2.15
2023-05-09T16:29:16.298Z,2.08
2023-05-09T16:31:44.946Z,2.35
2023-05-09T16:34:11.437Z,2.10
2023-05-09T16:36:38.308Z,2.22
2023-05-09T16:39:05.150Z,2.45
2023-05-09T16:41:31.782Z,2.10
2023-05-09T16:43:58.951Z,2.53
2023-05-09T16:48:52.814Z,2.60
2023-05-09T16:51:19.277Z,3.03
2023-05-09T16:53:45.732Z,3.28
2023-05-09T16:56:12.608Z,3.10
2023-05-09T16:58:39.270Z,3.15
2023-05-09T17:01:05.855Z,2.80
2023-05-09T17:03:32.319Z,2.88
2023-05-09T17:05:58.825Z,3.50
2023-05-09T17:08:25.249Z,3.00
2023-05-09T17:10:51.693Z,3.35
2023-05-09T17:13:18.117Z,3.90
2023-05-09T17:15:52.702Z,3.50
2023-05-09T17:18:33.234Z,3.83
2023-05-09T17:21:03.825Z,3.80
2023-05-09T17:23:30.276Z,3.90
2023-05-09T17:25:56.735Z,3.88
2023-05-09T17:28:26.894Z,3.70
2023-05-09T17:30:53.383Z,3.67
2023-05-09T17:33:20.675Z,3.60
2023-05-09T17:38:26.106Z,3.80
2023-05-09T17:40:52.668Z,3.85
2023-05-09T17:43:19.585Z,4.20
2023-05-09T17:45:46.408Z,3.97
2023-05-09T17:48:13.542Z,4.18
2023-05-09T17:50:39.978Z,4.18
2023-05-09T17:53:08.764Z,4.20
2023-05-09T17:55:35.543Z,4.18
2023-05-09T17:58:02.991Z,4.55
2023-05-09T18:00:29.615Z,4.32
2023-05-09T18:02:58.304Z,4.60
2023-05-09T18:05:26.756Z,4.72
2023-05-09T18:07:53.415Z,5.40
2023-05-09T18:10:20.744Z,5.03
2023-05-09T18:12:48.375Z,5.28
2023-05-09T18:15:15.007Z,5.20
2023-05-09T18:17:41.558Z,5.05
2023-05-09T18:20:08.732Z,5.45
2023-05-09T18:27:32.421Z,5.30
2023-05-09T18:29:59.530Z,5.68
2023-05-09T18:32:26.131Z,5.38
2023-05-09T18:34:53.054Z,5.68
2023-05-09T18:37:19.587Z,5.50
2023-05-09T18:39:46.101Z,5.63
2023-05-09T18:42:16.157Z,5.75
2023-05-09T18:44:44.257Z,5.78
2023-05-09T18:47:11.286Z,5.35
2023-05-09T18:49:52.782Z,5.60
2023-05-09T18:52:21.129Z,5.65
2023-05-09T18:54:48.087Z,5.90
2023-05-09T18:57:14.896Z,5.82
2023-05-09T18:59:41.436Z,6.13
2023-05-09T19:02:09.172Z,6.20
2023-05-09T19:04:36.948Z,6.50
2023-05-09T19:07:04.563Z,6.35
2023-05-09T19:09:31.240Z,6.53
2023-05-09T19:11:59.562Z,6.30
2023-05-09T19:14:26.061Z,7.50
2023-05-09T19:16:54.087Z,7.28
2023-05-09T19:19:20.775Z,6.80
2023-05-09T19:21:50.146Z,6.65
2023-05-09T19:24:16.764Z,6.75
2023-05-09T19:26:43.311Z,7.65
2023-05-09T19:29:09.974Z,6.65
2023-05-09T19:31:37.716Z,6.97
2023-05-09T19:34:04.332Z,6.82
2023-05-09T19:36:31.036Z,7.28
2023-05-09T19:38:58.974Z,7.45
2023-05-09T19:41:26.855Z,6.50
2023-05-09T19:43:53.498Z,7.00
2023-05-09T19:46:20.170Z,6.55
2023-05-09T19:48:46.658Z,7.05
2023-05-09T19:51:15.894Z,7.00
2023-05-09T19:53:44.410Z,6.68
2023-05-09T19:56:11.602Z,7.40
2023-05-09T20:01:07.416Z,6.97
2023-05-09T20:03:36.765Z,6.38
2023-05-09T20:06:03.505Z,6.70
2023-05-09T20:08:31.274Z,6.93
2023-05-09T20:10:59.551Z,6.78
2023-05-09T20:13:27.057Z,7.28
2023-05-09T20:15:53.892Z,7.47
2023-05-09T20:18:20.560Z,7.80
2023-05-09T20:20:47.033Z,8.20
2023-05-09T20:23:13.594Z,8.00
2023-05-09T20:25:40.337Z,8.02
2023-05-09T20:28:06.819Z,7.55
2023-05-09T20:30:33.347Z,7.68
2023-05-09T20:33:01.117Z,7.70
2023-05-09T20:35:27.820Z,8.10
2023-05-09T20:37:54.719Z,8.32
2023-05-09T20:40:21.201Z,8.55
2023-05-09T20:42:47.763Z,9.90
2023-05-09T20:45:14.306Z,9.00
2023-05-09T20:47:41.166Z,9.50
2023-05-09T20:50:08.512Z,9.63
2023-05-09T20:52:34.995Z,9.32
2023-05-09T20:55:01.986Z,8.93
2023-05-09T20:57:28.689Z,9.93
2023-05-09T20:59:55.278Z,9.98
2023-05-09T21:02:24.980Z,10.05
2023-05-09T21:05:03.708Z,9.65
2023-05-09T21:10:19.841Z,10.00
2023-05-09T21:12:47.780Z,9.63
2023-05-09T21:15:15.458Z,9.48
2023-05-09T21:17:46.551Z,10.15
2023-05-09T21:20:13.442Z,9.90
2023-05-09T21:22:41.995Z,9.52
2023-05-09T21:25:09.551Z,9.70
2023-05-09T21:27:36.712Z,10.68
2023-05-09T21:30:03.841Z,10.15
2023-05-09T21:32:30.432Z,10.55
2023-05-09T21:34:56.982Z,9.73
2023-05-09T21:37:23.529Z,9.65
2023-05-09T21:39:50.504Z,10.13
2023-05-09T21:42:17.846Z,9.98
2023-05-09T21:44:45.210Z,10.30
2023-05-09T21:47:11.847Z,9.75
2023-05-09T21:49:38.834Z,10.60
2023-05-09T21:52:05.312Z,10.07
2023-05-09T21:54:31.836Z,9.88
2023-05-09T21:56:58.390Z,10.10
2023-05-09T21:59:25.419Z,10.18
2023-05-09T22:01:51.998Z,9.50
2023-05-09T22:04:18.486Z,8.55
2023-05-09T22:06:45.989Z,8.48
2023-05-09T22:09:12.745Z,9.00
2023-05-09T22:11:39.812Z,8.55
2023-05-09T22:14:07.255Z,7.07
2023-05-09T22:16:38.537Z,8.68
2023-05-09T22:19:05.371Z,8.65
2023-05-09T22:21:34.112Z,10.27
2023-05-09T22:24:00.796Z,10.75
2023-05-09T22:26:29.053Z,9.85
2023-05-09T22:28:56.313Z,11.57
2023-05-09T22:34:00.102Z,12.43
2023-05-09T22:36:27.094Z,12.63
2023-05-09T22:39:01.987Z,12.95
2023-05-09T22:41:28.578Z,12.88
2023-05-09T22:43:55.013Z,12.13
2023-05-09T22:46:21.700Z,13.60
2023-05-09T22:48:54.009Z,12.57
2023-05-09T22:51:25.500Z,12.77
2023-05-09T22:53:54.300Z,12.73
2023-05-09T22:56:20.784Z,13.23
2023-05-09T22:58:49.354Z,12.33
2023-05-09T23:01:17.368Z,12.05
2023-05-09T23:03:43.873Z,13.60
2023-05-09T23:06:14.498Z,13.48
2023-05-09T23:08:47.688Z,12.50
2023-05-09T23:11:14.339Z,13.27
2023-05-09T23:13:41.138Z,13.77
2023-05-09T23:16:07.759Z,10.80
2023-05-09T23:18:34.422Z,11.18
2023-05-09T23:21:01.034Z,7.60
2023-05-09T23:23:27.692Z,6.93
2023-05-09T23:25:54.400Z,5.88
2023-05-09T23:28:25.465Z,5.70
2023-05-09T23:30:53.528Z,5.93
2023-05-09T23:33:20.289Z,5.35
2023-05-09T23:35:47.565Z,6.25
2023-05-09T23:38:14.113Z,5.85
2023-05-09T23:40:44.230Z,5.53
2023-05-09T23:43:10.672Z,4.93
2023-05-09T23:45:38.081Z,5.93
2023-05-09T23:50:31.315Z,4.63
2023-05-09T23:52:57.765Z,5.00
2023-05-09T23:55:24.347Z,5.30
2023-05-09T23:57:50.885Z,4.75
